createdAt,value
2022-09-17T00:00:44.803Z,995.6
2022-09-17T00:01:47.814Z,995.7
2022-09-17T00:02:51.314Z,995.6
2022-09-17T00:03:55.102Z,995.6
2022-09-17T00:04:57.986Z,995.6
2022-09-17T00:06:01.356Z,995.6
2022-09-17T00:07:06.226Z,995.7
2022-09-17T00:08:08.812Z,995.7
2022-09-17T00:09:11.727Z,995.7
2022-09-17T00:10:14.528Z,995.7
2022-09-17T00:11:17.970Z,995.7
2022-09-17T00:12:20.568Z,995.7
2022-09-17T00:13:23.082Z,995.7
2022-09-17T00:14:25.954Z,995.7
2022-09-17T00:15:29.214Z,995.7
2022-09-17T00:16:32.487Z,995.7
2022-09-17T00:17:35.645Z,995.7
2022-09-17T00:18:38.815Z,995.7
2022-09-17T00:19:41.807Z,995.7
2022-09-17T00:20:44.716Z,995.7
2022-09-17T00:21:47.587Z,995.7
2022-09-17T00:22:51.905Z,995.7
2022-09-17T00:23:55.250Z,995.7
2022-09-17T00:24:57.814Z,995.7
2022-09-17T00:26:00.969Z,995.7
2022-09-17T00:27:04.086Z,995.7
2022-09-17T00:28:07.595Z,995.7
2022-09-17T00:29:09.817Z,995.7
2022-09-17T00:30:12.887Z,995.7
2022-09-17T00:31:16.779Z,995.7
2022-09-17T00:32:20.100Z,995.7
2022-09-17T00:33:23.613Z,995.7
2022-09-17T00:34:26.762Z,995.7
2022-09-17T00:35:29.761Z,995.7
2022-09-17T00:36:33.232Z,995.7
2022-09-17T00:37:36.399Z,995.8
2022-09-17T00:38:41.207Z,995.7
2022-09-17T00:39:44.007Z,995.7
2022-09-17T00:40:47.297Z,995.7
2022-09-17T00:41:50.197Z,995.7
2022-09-17T00:42:53.292Z,995.7
2022-09-17T00:43:56.011Z,995.8
2022-09-17T00:44:59.572Z,995.7
2022-09-17T00:46:02.335Z,995.8
2022-09-17T00:47:05.979Z,995.7
2022-09-17T00:48:09.060Z,995.8
2022-09-17T00:49:12.796Z,995.8
2022-09-17T00:50:15.946Z,995.7
2022-09-17T00:51:19.001Z,995.7
2022-09-17T00:52:22.293Z,995.8
2022-09-17T00:53:24.828Z,995.8
2022-09-17T00:54:29.426Z,995.8
2022-09-17T00:55:31.949Z,995.8
2022-09-17T00:56:34.381Z,995.8
2022-09-17T00:57:37.101Z,995.8
2022-09-17T00:58:41.633Z,995.8
2022-09-17T00:59:44.573Z,995.8
2022-09-17T01:00:48.302Z,995.8
2022-09-17T01:01:51.100Z,995.9
2022-09-17T01:02:55.038Z,995.9
2022-09-17T01:03:58.178Z,995.9
2022-09-17T01:05:01.117Z,995.9
2022-09-17T01:06:04.272Z,995.9
2022-09-17T01:07:07.125Z,995.9
2022-09-17T01:08:10.094Z,995.9
2022-09-17T01:09:12.701Z,995.9
2022-09-17T01:10:17.513Z,995.9
2022-09-17T01:11:20.576Z,995.9
2022-09-17T01:12:23.293Z,995.9
2022-09-17T01:13:26.472Z,996
2022-09-17T01:14:29.737Z,996
2022-09-17T01:15:32.974Z,996
2022-09-17T01:16:35.721Z,996
2022-09-17T01:17:39.082Z,995.9
2022-09-17T01:18:42.193Z,995.9
2022-09-17T01:19:45.054Z,995.8
2022-09-17T01:20:48.283Z,995.8
2022-09-17T01:21:51.097Z,995.9
2022-09-17T01:22:54.078Z,995.9
2022-09-17T01:23:57.905Z,995.9
2022-09-17T01:25:00.056Z,995.9
2022-09-17T01:26:04.594Z,995.9
2022-09-17T01:27:07.107Z,995.9
2022-09-17T01:28:09.346Z,996
2022-09-17T01:29:12.213Z,996
2022-09-17T01:30:15.005Z,995.9
2022-09-17T01:31:17.711Z,996
2022-09-17T01:32:20.559Z,996
2022-09-17T01:33:23.151Z,996
2022-09-17T01:34:25.876Z,996
2022-09-17T01:35:28.660Z,996
2022-09-17T01:36:31.656Z,996
2022-09-17T01:37:34.742Z,996
2022-09-17T01:38:37.811Z,996
2022-09-17T01:39:41.076Z,996
2022-09-17T01:40:43.940Z,996
2022-09-17T01:41:48.742Z,996
2022-09-17T01:42:52.071Z,996
2022-09-17T01:43:54.594Z,995.9
2022-09-17T01:44:57.493Z,996
2022-09-17T01:46:00.483Z,996
2022-09-17T01:47:03.084Z,996
2022-09-17T01:48:05.589Z,996
2022-09-17T01:49:08.475Z,996
2022-09-17T01:50:11.430Z,996
2022-09-17T01:51:14.885Z,996
2022-09-17T01:52:17.417Z,996.1
2022-09-17T01:53:19.731Z,996.1
2022-09-17T01:54:21.769Z,996.1
2022-09-17T01:55:24.688Z,996.1
2022-09-17T01:56:27.953Z,996.1
2022-09-17T01:57:32.563Z,996.1
2022-09-17T01:58:35.344Z,996.1
2022-09-17T01:59:38.160Z,996
2022-09-17T02:00:41.301Z,996.1
2022-09-17T02:01:45.054Z,996.1
2022-09-17T02:02:49.065Z,996.1
2022-09-17T02:03:52.199Z,996.1
2022-09-17T02:04:54.710Z,996.1
2022-09-17T02:05:57.511Z,996.1
2022-09-17T02:07:00.298Z,996.1
2022-09-17T02:08:03.012Z,996
2022-09-17T02:09:05.793Z,996
2022-09-17T02:10:08.472Z,996.1
2022-09-17T02:11:11.420Z,996.1
2022-09-17T02:12:13.932Z,996
2022-09-17T02:13:18.800Z,996
2022-09-17T02:14:22.515Z,996
2022-09-17T02:15:24.775Z,996
2022-09-17T02:16:27.938Z,996
2022-09-17T02:17:30.749Z,996
2022-09-17T02:18:33.897Z,996
2022-09-17T02:19:37.611Z,996
2022-09-17T02:20:40.201Z,996
2022-09-17T02:21:43.372Z,995.9
2022-09-17T02:22:46.983Z,996
2022-09-17T02:23:50.435Z,996
2022-09-17T02:24:53.215Z,996
2022-09-17T02:25:56.003Z,996
2022-09-17T02:26:58.636Z,996
2022-09-17T02:28:04.065Z,995.9
2022-09-17T02:29:08.666Z,996
2022-09-17T02:30:12.102Z,996
2022-09-17T02:31:15.121Z,996
2022-09-17T02:32:17.659Z,996
2022-09-17T02:33:20.743Z,996
2022-09-17T02:34:23.177Z,995.9
2022-09-17T02:35:26.058Z,996
2022-09-17T02:36:29.790Z,995.9
2022-09-17T02:37:32.194Z,995.9
2022-09-17T02:38:34.914Z,996
2022-09-17T02:39:37.904Z,995.9
2022-09-17T02:40:40.253Z,996
2022-09-17T02:41:42.851Z,995.9
2022-09-17T02:42:45.745Z,995.9
2022-09-17T02:43:49.144Z,996
2022-09-17T02:44:53.958Z,996
2022-09-17T02:45:56.947Z,996
2022-09-17T02:46:59.602Z,996
2022-09-17T02:48:02.326Z,996
2022-09-17T02:49:04.847Z,996
2022-09-17T02:50:07.274Z,996
2022-09-17T02:51:09.937Z,996
2022-09-17T02:52:13.004Z,996
2022-09-17T02:53:16.482Z,995.9
2022-09-17T02:54:19.943Z,996
2022-09-17T02:55:22.661Z,996
2022-09-17T02:56:26.127Z,996
2022-09-17T02:57:29.219Z,996
2022-09-17T02:58:31.940Z,996
2022-09-17T02:59:34.172Z,995.9
2022-09-17T03:00:38.853Z,995.9
2022-09-17T03:01:41.792Z,995.9
2022-09-17T03:02:44.670Z,995.9
2022-09-17T03:03:46.998Z,995.9
2022-09-17T03:04:50.144Z,995.9
2022-09-17T03:05:53.516Z,996
2022-09-17T03:06:55.842Z,995.9
2022-09-17T03:07:59.276Z,995.9
2022-09-17T03:09:02.374Z,995.9
2022-09-17T03:10:05.816Z,995.9
2022-09-17T03:11:08.907Z,995.9
2022-09-17T03:12:11.332Z,995.9
2022-09-17T03:13:14.414Z,995.9
2022-09-17T03:14:17.761Z,995.9
2022-09-17T03:15:20.554Z,995.9
2022-09-17T03:16:25.472Z,995.9
2022-09-17T03:17:28.677Z,995.9
2022-09-17T03:18:31.552Z,995.9
2022-09-17T03:19:34.359Z,995.8
2022-09-17T03:20:37.711Z,995.9
2022-09-17T03:21:40.602Z,995.9
2022-09-17T03:22:43.780Z,995.9
2022-09-17T03:23:46.320Z,995.9
2022-09-17T03:24:50.346Z,995.9
2022-09-17T03:25:52.861Z,995.9
2022-09-17T03:26:56.246Z,996
2022-09-17T03:27:59.304Z,995.9
2022-09-17T03:29:01.544Z,995.9
2022-09-17T03:30:04.725Z,996
2022-09-17T03:31:07.659Z,995.9
2022-09-17T03:32:13.009Z,996
2022-09-17T03:33:15.875Z,996
2022-09-17T03:34:18.785Z,996
2022-09-17T03:35:21.861Z,995.9
2022-09-17T03:36:24.575Z,995.9
2022-09-17T03:37:33.353Z,996
2022-09-17T03:38:36.240Z,995.9
2022-09-17T03:39:39.122Z,995.9
2022-09-17T03:40:42.832Z,995.9
2022-09-17T03:41:45.633Z,996
2022-09-17T03:42:48.735Z,996
2022-09-17T03:43:51.454Z,996
2022-09-17T03:44:54.148Z,996
2022-09-17T03:45:57.958Z,996
2022-09-17T03:47:02.052Z,996
2022-09-17T03:48:06.616Z,996
2022-09-17T03:49:09.166Z,996
2022-09-17T03:50:12.519Z,996
2022-09-17T03:51:15.586Z,996
2022-09-17T03:52:19.001Z,996
2022-09-17T03:53:22.153Z,996
2022-09-17T03:54:24.959Z,996
2022-09-17T03:55:28.143Z,996
2022-09-17T03:56:30.672Z,996.1
2022-09-17T03:57:33.659Z,996
2022-09-17T03:58:36.449Z,996
2022-09-17T03:59:38.890Z,996
2022-09-17T04:00:41.328Z,996
2022-09-17T04:01:44.559Z,996
2022-09-17T04:02:48.556Z,996
2022-09-17T04:03:53.838Z,996.1
2022-09-17T04:04:58.279Z,996.1
2022-09-17T04:06:00.883Z,996
2022-09-17T04:07:03.752Z,996.1
2022-09-17T04:08:06.487Z,996.1
2022-09-17T04:09:09.680Z,996.1
2022-09-17T04:10:13.126Z,996.1
2022-09-17T04:11:15.727Z,996.2
2022-09-17T04:12:18.728Z,996.1
2022-09-17T04:13:21.605Z,996.2
2022-09-17T04:14:25.049Z,996.1
2022-09-17T04:15:28.409Z,996.2
2022-09-17T04:16:31.380Z,996.2
2022-09-17T04:17:35.118Z,996.2
2022-09-17T04:18:38.016Z,996.2
2022-09-17T04:19:42.824Z,996.2
2022-09-17T04:20:45.977Z,996.2
2022-09-17T04:21:48.497Z,996.3
2022-09-17T04:22:51.843Z,996.3
2022-09-17T04:23:55.266Z,996.3
2022-09-17T04:24:58.062Z,996.3
2022-09-17T04:26:01.048Z,996.3
2022-09-17T04:27:04.465Z,996.2
2022-09-17T04:28:07.641Z,996.3
2022-09-17T04:29:10.249Z,996.2
2022-09-17T04:30:13.394Z,996.2
2022-09-17T04:31:16.594Z,996.2
2022-09-17T04:32:20.551Z,996.2
2022-09-17T04:33:24.034Z,996.2
2022-09-17T04:34:26.702Z,996.2
2022-09-17T04:35:30.941Z,996.2
2022-09-17T04:36:33.810Z,996.2
2022-09-17T04:37:36.240Z,996.2
2022-09-17T04:38:39.397Z,996.2
2022-09-17T04:39:42.654Z,996.2
2022-09-17T04:40:46.099Z,996.2
2022-09-17T04:41:48.900Z,996.2
2022-09-17T04:42:51.428Z,996.2
2022-09-17T04:43:54.027Z,996.2
2022-09-17T04:44:57.129Z,996.2
2022-09-17T04:46:00.198Z,996.2
2022-09-17T04:47:03.270Z,996.3
2022-09-17T04:48:06.149Z,996.2
2022-09-17T04:49:08.512Z,996.2
2022-09-17T04:50:11.655Z,996.3
2022-09-17T04:51:16.176Z,996.2
2022-09-17T04:52:20.251Z,996.2
2022-09-17T04:53:23.053Z,996.2
2022-09-17T04:54:26.491Z,996.3
2022-09-17T04:55:29.379Z,996.2
2022-09-17T04:56:32.810Z,996.3
2022-09-17T04:57:35.253Z,996.3
2022-09-17T04:58:38.098Z,996.3
2022-09-17T04:59:41.249Z,996.3
2022-09-17T05:00:44.524Z,996.3
2022-09-17T05:01:48.340Z,996.3
2022-09-17T05:02:51.718Z,996.3
2022-09-17T05:03:54.877Z,996.3
2022-09-17T05:04:58.453Z,996.2
2022-09-17T05:06:02.063Z,996.2
2022-09-17T05:07:08.391Z,996.2
2022-09-17T05:08:16.593Z,996.2
2022-09-17T05:09:19.413Z,996.2
2022-09-17T05:10:22.506Z,996.2
2022-09-17T05:11:25.569Z,996.2
2022-09-17T05:12:34.777Z,996.3
2022-09-17T05:13:37.875Z,996.3
2022-09-17T05:14:40.866Z,996.4
2022-09-17T05:15:44.133Z,996.3
2022-09-17T05:16:47.772Z,996.3
2022-09-17T05:17:51.266Z,996.3
2022-09-17T05:18:54.448Z,996.4
2022-09-17T05:19:57.113Z,996.4
2022-09-17T05:20:59.943Z,996.4
2022-09-17T05:22:02.842Z,996.4
2022-09-17T05:23:07.695Z,996.4
2022-09-17T05:24:10.577Z,996.4
2022-09-17T05:25:13.460Z,996.4
2022-09-17T05:26:16.255Z,996.4
2022-09-17T05:27:19.495Z,996.5
2022-09-17T05:28:22.902Z,996.5
2022-09-17T05:29:26.253Z,996.5
2022-09-17T05:30:29.343Z,996.5
2022-09-17T05:31:32.303Z,996.5
2022-09-17T05:32:35.179Z,996.6
2022-09-17T05:33:37.903Z,996.5
2022-09-17T05:34:41.605Z,996.6
2022-09-17T05:35:44.764Z,996.6
2022-09-17T05:36:47.762Z,996.6
2022-09-17T05:37:51.180Z,996.6
2022-09-17T05:38:55.718Z,996.6
2022-09-17T05:39:58.799Z,996.6
2022-09-17T05:41:01.947Z,996.7
2022-09-17T05:42:05.472Z,996.7
2022-09-17T05:43:07.962Z,996.7
2022-09-17T05:44:18.162Z,996.7
2022-09-17T05:45:20.618Z,996.7
2022-09-17T05:46:23.474Z,996.7
2022-09-17T05:47:26.818Z,996.7
2022-09-17T05:48:29.986Z,996.7
2022-09-17T05:49:33.115Z,996.8
2022-09-17T05:50:35.917Z,996.8
2022-09-17T05:51:38.142Z,996.8
2022-09-17T05:52:41.409Z,996.8
2022-09-17T05:53:44.403Z,996.7
2022-09-17T05:54:49.138Z,996.7
2022-09-17T05:55:52.400Z,996.8
2022-09-17T05:56:55.471Z,996.8
2022-09-17T05:57:57.903Z,996.8
2022-09-17T05:59:01.390Z,996.8
2022-09-17T06:00:04.646Z,996.8
2022-09-17T06:01:07.704Z,996.8
2022-09-17T06:02:10.764Z,996.8
2022-09-17T06:03:14.717Z,996.8
2022-09-17T06:04:18.672Z,996.8
2022-09-17T06:05:21.502Z,996.7
2022-09-17T06:06:24.092Z,996.7
2022-09-17T06:07:26.604Z,996.8
2022-09-17T06:08:30.345Z,996.7
2022-09-17T06:09:33.828Z,996.8
2022-09-17T06:10:38.146Z,996.8
2022-09-17T06:11:41.459Z,996.8
2022-09-17T06:12:43.809Z,996.7
2022-09-17T06:13:46.863Z,996.8
2022-09-17T06:14:49.341Z,996.8
2022-09-17T06:15:52.365Z,996.8
2022-09-17T06:16:55.929Z,996.8
2022-09-17T06:17:58.795Z,996.8
2022-09-17T06:19:02.129Z,996.8
2022-09-17T06:20:05.620Z,996.8
2022-09-17T06:21:08.690Z,996.8
2022-09-17T06:22:12.132Z,996.8
2022-09-17T06:23:16.583Z,996.8
2022-09-17T06:24:19.484Z,996.8
2022-09-17T06:25:21.997Z,996.8
2022-09-17T06:26:26.558Z,996.8
2022-09-17T06:27:29.148Z,996.9
2022-09-17T06:28:32.135Z,996.9
2022-09-17T06:29:43.538Z,996.9
2022-09-17T06:30:46.141Z,996.8
2022-09-17T06:31:49.604Z,996.9
2022-09-17T06:32:52.914Z,996.9
2022-09-17T06:33:58.977Z,996.9
2022-09-17T06:35:03.223Z,996.9
2022-09-17T06:36:13.851Z,996.9
2022-09-17T06:37:17.714Z,996.9
2022-09-17T06:38:20.594Z,997
2022-09-17T06:39:23.980Z,996.9
2022-09-17T06:40:27.556Z,997
2022-09-17T06:41:32.709Z,997.1
2022-09-17T06:42:36.230Z,997
2022-09-17T06:43:39.569Z,997.1
2022-09-17T06:44:42.738Z,997.1
2022-09-17T06:45:46.106Z,997
2022-09-17T06:46:49.468Z,997
2022-09-17T06:47:53.067Z,997
2022-09-17T06:48:56.163Z,997
2022-09-17T06:49:59.339Z,997
2022-09-17T06:51:01.656Z,997
2022-09-17T06:52:04.807Z,997
2022-09-17T06:53:07.677Z,997
2022-09-17T06:54:10.183Z,997.1
2022-09-17T06:55:13.451Z,997
2022-09-17T06:56:16.896Z,997
2022-09-17T06:57:21.752Z,997.1
2022-09-17T06:58:24.547Z,997
2022-09-17T06:59:27.334Z,997
2022-09-17T07:00:30.485Z,997
2022-09-17T07:01:33.491Z,997
2022-09-17T07:02:36.750Z,997
2022-09-17T07:03:40.471Z,997
2022-09-17T07:04:43.928Z,997
2022-09-17T07:05:47.021Z,997
2022-09-17T07:06:49.821Z,997.1
2022-09-17T07:07:52.897Z,997
2022-09-17T07:08:55.404Z,997
2022-09-17T07:09:58.561Z,997
2022-09-17T07:11:01.838Z,997
2022-09-17T07:12:04.353Z,997
2022-09-17T07:13:09.159Z,997
2022-09-17T07:14:12.783Z,997
2022-09-17T07:15:15.383Z,997
2022-09-17T07:16:18.590Z,997.1
2022-09-17T07:17:22.451Z,997
2022-09-17T07:18:26.464Z,997.1
2022-09-17T07:19:28.974Z,997
2022-09-17T07:20:31.692Z,997.1
2022-09-17T07:21:34.494Z,997.1
2022-09-17T07:22:37.431Z,997
2022-09-17T07:23:40.507Z,997
2022-09-17T07:24:43.729Z,997
2022-09-17T07:25:46.250Z,997
2022-09-17T07:26:49.726Z,996.9
2022-09-17T07:27:53.073Z,997
2022-09-17T07:28:57.661Z,997
2022-09-17T07:30:00.734Z,997.1
2022-09-17T07:31:03.721Z,997.1
2022-09-17T07:32:06.265Z,997
2022-09-17T07:33:09.712Z,997
2022-09-17T07:34:11.959Z,997.1
2022-09-17T07:35:15.102Z,997
2022-09-17T07:36:17.617Z,996.9
2022-09-17T07:37:20.879Z,997
2022-09-17T07:38:24.018Z,997
2022-09-17T07:39:26.812Z,997
2022-09-17T07:40:29.908Z,997
2022-09-17T07:41:33.683Z,997
2022-09-17T07:42:36.885Z,997.1
2022-09-17T07:43:39.669Z,997
2022-09-17T07:44:44.515Z,997
2022-09-17T07:45:46.940Z,997
2022-09-17T07:46:50.174Z,997.1
2022-09-17T07:47:54.026Z,997.1
2022-09-17T07:48:57.212Z,997
2022-09-17T07:50:00.001Z,997.1
2022-09-17T07:51:03.267Z,997.1
2022-09-17T07:52:06.399Z,997.1
2022-09-17T07:53:09.475Z,997
2022-09-17T07:54:11.638Z,997.1
2022-09-17T07:55:14.794Z,997.1
2022-09-17T07:56:17.313Z,997.1
2022-09-17T07:57:19.832Z,997
2022-09-17T07:58:22.675Z,997.1
2022-09-17T07:59:25.553Z,997
2022-09-17T08:00:29.826Z,997
2022-09-17T08:01:32.740Z,997.1
2022-09-17T08:02:36.793Z,997.1
2022-09-17T08:03:40.698Z,997.1
2022-09-17T08:04:44.226Z,997.1
2022-09-17T08:05:47.378Z,997.1
2022-09-17T08:06:50.856Z,997.1
2022-09-17T08:07:53.654Z,997
2022-09-17T08:08:56.531Z,997.1
2022-09-17T08:09:59.901Z,997.1
2022-09-17T08:11:02.969Z,997.1
2022-09-17T08:12:05.648Z,997
2022-09-17T08:13:08.630Z,997
2022-09-17T08:14:11.705Z,997
2022-09-17T08:15:14.129Z,997
2022-09-17T08:16:19.015Z,997
2022-09-17T08:17:23.085Z,997.1
2022-09-17T08:18:26.460Z,997.1
2022-09-17T08:19:29.615Z,997
2022-09-17T08:20:32.493Z,997
2022-09-17T08:21:35.127Z,997
2022-09-17T08:22:38.467Z,997
2022-09-17T08:23:41.809Z,997
2022-09-17T08:24:45.032Z,997
2022-09-17T08:25:48.093Z,997
2022-09-17T08:26:51.199Z,996.9
2022-09-17T08:27:53.912Z,996.9
2022-09-17T08:28:57.815Z,996.9
2022-09-17T08:30:01.354Z,997
2022-09-17T08:31:04.918Z,997
2022-09-17T08:32:09.999Z,996.9
2022-09-17T08:33:13.412Z,997
2022-09-17T08:34:16.015Z,997
2022-09-17T08:35:19.367Z,996.9
2022-09-17T08:36:22.306Z,997
2022-09-17T08:37:25.126Z,996.9
2022-09-17T08:38:28.111Z,996.9
2022-09-17T08:39:31.086Z,996.9
2022-09-17T08:40:34.505Z,996.8
2022-09-17T08:41:37.502Z,996.8
2022-09-17T08:42:39.939Z,996.9
2022-09-17T08:43:43.003Z,996.9
2022-09-17T08:44:46.515Z,996.9
2022-09-17T08:45:53.404Z,996.9
2022-09-17T08:46:56.626Z,996.9
2022-09-17T08:48:01.574Z,996.9
2022-09-17T08:49:04.271Z,996.9
2022-09-17T08:50:06.725Z,997
2022-09-17T08:51:10.071Z,996.9
2022-09-17T08:52:12.583Z,996.9
2022-09-17T08:53:15.864Z,996.9
2022-09-17T08:54:18.736Z,997
2022-09-17T08:55:21.751Z,996.9
2022-09-17T08:56:24.186Z,996.9
2022-09-17T08:57:28.642Z,997
2022-09-17T08:58:31.812Z,997.1
2022-09-17T08:59:34.686Z,997
2022-09-17T09:00:38.129Z,997
2022-09-17T09:01:41.205Z,997
2022-09-17T09:02:44.403Z,997
2022-09-17T09:03:49.454Z,997
2022-09-17T09:04:52.613Z,997
2022-09-17T09:05:55.421Z,997
2022-09-17T09:06:58.576Z,997
2022-09-17T09:08:01.284Z,997
2022-09-17T09:09:04.799Z,997
2022-09-17T09:10:08.161Z,997.1
2022-09-17T09:11:11.671Z,997
2022-09-17T09:12:15.084Z,997
2022-09-17T09:13:18.510Z,997
2022-09-17T09:14:21.577Z,997
2022-09-17T09:15:25.312Z,997
2022-09-17T09:16:28.655Z,997
2022-09-17T09:17:32.751Z,997
2022-09-17T09:18:35.925Z,997
2022-09-17T09:19:40.776Z,997
2022-09-17T09:20:43.485Z,997
2022-09-17T09:21:46.922Z,997
2022-09-17T09:22:49.948Z,997
2022-09-17T09:23:53.139Z,997
2022-09-17T09:24:55.647Z,997.1
2022-09-17T09:25:59.455Z,997
2022-09-17T09:27:02.809Z,997
2022-09-17T09:28:06.158Z,997
2022-09-17T09:29:09.287Z,997
2022-09-17T09:30:12.087Z,997
2022-09-17T09:31:15.605Z,997
2022-09-17T09:32:19.104Z,997
2022-09-17T09:33:22.278Z,997
2022-09-17T09:34:25.343Z,997
2022-09-17T09:35:29.601Z,997
2022-09-17T09:36:32.203Z,997.1
2022-09-17T09:37:34.988Z,997
2022-09-17T09:38:38.304Z,996.9
2022-09-17T09:39:46.471Z,997
2022-09-17T09:40:50.093Z,996.9
2022-09-17T09:41:53.085Z,997
2022-09-17T09:42:56.076Z,996.9
2022-09-17T09:44:06.339Z,996.9
2022-09-17T09:45:08.932Z,996.9
2022-09-17T09:46:11.595Z,996.8
2022-09-17T09:47:14.730Z,996.9
2022-09-17T09:48:17.996Z,996.9
2022-09-17T09:49:21.871Z,996.8
2022-09-17T09:50:24.115Z,996.9
2022-09-17T09:52:09.017Z,996.9
2022-09-17T09:53:12.654Z,996.9
2022-09-17T09:54:15.996Z,996.9
2022-09-17T09:55:18.475Z,996.8
2022-09-17T09:56:29.115Z,996.8
2022-09-17T09:57:32.574Z,996.8
2022-09-17T09:58:35.844Z,996.8
2022-09-17T09:59:38.759Z,996.9
2022-09-17T10:00:42.022Z,996.9
2022-09-17T10:01:44.566Z,996.9
2022-09-17T10:02:48.575Z,996.9
2022-09-17T10:03:52.903Z,996.9
2022-09-17T10:04:56.021Z,997
2022-09-17T10:05:58.549Z,996.9
2022-09-17T10:07:02.545Z,996.9
2022-09-17T10:08:06.326Z,997
2022-09-17T10:09:09.113Z,996.8
2022-09-17T10:10:11.651Z,996.9
2022-09-17T10:11:14.752Z,996.8
2022-09-17T10:12:17.821Z,997
2022-09-17T10:13:20.280Z,996.9
2022-09-17T10:14:23.170Z,996.8
2022-09-17T10:15:26.278Z,996.8
2022-09-17T10:16:29.552Z,996.8
2022-09-17T10:17:32.301Z,996.8
2022-09-17T10:18:35.654Z,996.8
2022-09-17T10:19:38.815Z,996.8
2022-09-17T10:20:42.015Z,996.8
2022-09-17T10:21:44.916Z,996.8
2022-09-17T10:22:48.794Z,996.9
2022-09-17T10:23:52.485Z,996.9
2022-09-17T10:24:55.900Z,996.9
2022-09-17T10:25:59.064Z,996.9
2022-09-17T10:27:02.519Z,996.9
2022-09-17T10:28:05.349Z,997
2022-09-17T10:29:08.339Z,996.9
2022-09-17T10:30:11.682Z,996.9
2022-09-17T10:31:15.071Z,996.9
2022-09-17T10:32:18.544Z,996.8
2022-09-17T10:33:21.021Z,996.9
2022-09-17T10:34:23.915Z,996.9
2022-09-17T10:35:26.899Z,996.8
2022-09-17T10:36:30.310Z,996.8
2022-09-17T10:37:40.918Z,996.9
2022-09-17T10:38:45.161Z,996.8
2022-09-17T10:39:49.673Z,996.9
2022-09-17T10:40:52.714Z,996.8
2022-09-17T10:41:55.811Z,996.8
2022-09-17T10:42:58.874Z,996.8
2022-09-17T10:44:01.608Z,996.8
2022-09-17T10:45:04.512Z,996.9
2022-09-17T10:46:08.381Z,996.9
2022-09-17T10:47:11.346Z,996.9
2022-09-17T10:48:14.409Z,996.9
2022-09-17T10:49:17.550Z,996.9
2022-09-17T10:50:20.430Z,996.9
2022-09-17T10:51:24.237Z,996.9
2022-09-17T10:52:27.785Z,996.9
2022-09-17T10:53:31.132Z,997
2022-09-17T10:54:35.615Z,996.9
2022-09-17T10:55:39.409Z,997
2022-09-17T10:56:42.560Z,997
2022-09-17T10:57:45.381Z,997.1
2022-09-17T10:58:48.452Z,997.1
2022-09-17T10:59:51.517Z,997.1
2022-09-17T11:00:54.386Z,997.1
2022-09-17T11:01:57.791Z,997.1
2022-09-17T11:03:01.476Z,997.1
2022-09-17T11:04:04.655Z,997.1
2022-09-17T11:05:07.099Z,997.1
2022-09-17T11:06:14.776Z,997
2022-09-17T11:07:18.224Z,997
2022-09-17T11:08:21.219Z,996.9
2022-09-17T11:09:24.330Z,997
2022-09-17T11:10:27.642Z,996.9
2022-09-17T11:11:31.700Z,996.9
2022-09-17T11:12:34.832Z,997
2022-09-17T11:13:37.892Z,997.1
2022-09-17T11:14:40.842Z,997
2022-09-17T11:15:44.387Z,997
2022-09-17T11:16:55.582Z,997
2022-09-17T11:17:58.663Z,997
2022-09-17T11:19:01.647Z,997.1
2022-09-17T11:20:04.989Z,997.2
2022-09-17T11:21:07.699Z,997.2
2022-09-17T11:22:10.839Z,997.2
2022-09-17T11:23:13.397Z,997.2
2022-09-17T11:24:16.884Z,997.1
2022-09-17T11:25:20.031Z,997.2
2022-09-17T11:26:24.257Z,997.1
2022-09-17T11:27:28.315Z,997.1
2022-09-17T11:28:30.899Z,997.1
2022-09-17T11:29:34.035Z,997.1
2022-09-17T11:30:38.027Z,997.1
2022-09-17T11:31:40.601Z,997.2
2022-09-17T11:32:43.808Z,997.2
2022-09-17T11:33:46.613Z,997.2
2022-09-17T11:34:49.325Z,997.2
2022-09-17T11:35:52.322Z,997.2
2022-09-17T11:36:55.228Z,997.2
2022-09-17T11:38:00.331Z,997.2
2022-09-17T11:39:03.402Z,997.1
2022-09-17T11:40:06.717Z,997.1
2022-09-17T11:41:10.115Z,997.1
2022-09-17T11:42:14.029Z,997.2
2022-09-17T11:43:17.793Z,997.1
2022-09-17T11:44:20.953Z,997.1
2022-09-17T11:45:23.388Z,997.1
2022-09-17T11:46:26.391Z,997.1
2022-09-17T11:47:29.040Z,997.2
2022-09-17T11:48:31.901Z,997.1
2022-09-17T11:49:35.338Z,997.1
2022-09-17T11:50:38.883Z,997
2022-09-17T11:51:42.056Z,997
2022-09-17T11:52:45.139Z,996.9
2022-09-17T11:53:48.360Z,997
2022-09-17T11:54:51.083Z,996.9
2022-09-17T11:55:53.818Z,996.8
2022-09-17T11:56:56.496Z,997
2022-09-17T11:58:00.698Z,996.9
2022-09-17T11:59:04.769Z,996.8
2022-09-17T12:00:07.764Z,996.8
2022-09-17T12:01:11.225Z,997
2022-09-17T12:02:14.766Z,996.8
2022-09-17T12:03:17.682Z,997
2022-09-17T12:04:21.172Z,996.9
2022-09-17T12:05:24.309Z,996.9
2022-09-17T12:06:27.120Z,996.9
2022-09-17T12:07:30.270Z,997
2022-09-17T12:08:33.810Z,997
2022-09-17T12:09:36.874Z,997
2022-09-17T12:10:39.596Z,996.9
2022-09-17T12:11:43.166Z,996.8
2022-09-17T12:12:50.920Z,996.8
2022-09-17T12:13:54.741Z,996.6
2022-09-17T12:14:58.778Z,996.7
2022-09-17T12:16:02.385Z,996.6
2022-09-17T12:17:05.450Z,996.7
2022-09-17T12:18:33.154Z,996.7
2022-09-17T12:19:36.713Z,996.6
2022-09-17T12:20:40.706Z,996.5
2022-09-17T12:21:43.971Z,996.6
2022-09-17T12:22:47.325Z,996.5
2022-09-17T12:23:50.142Z,996.6
2022-09-17T12:24:52.949Z,996.6
2022-09-17T12:25:55.734Z,996.5
2022-09-17T12:26:58.678Z,996.5
2022-09-17T12:28:01.466Z,996.5
2022-09-17T12:29:04.994Z,996.4
2022-09-17T12:30:09.076Z,996.5
2022-09-17T12:31:12.567Z,996.5
2022-09-17T12:32:16.596Z,996.5
2022-09-17T12:33:19.409Z,996.6
2022-09-17T12:34:22.398Z,996.6
2022-09-17T12:36:02.827Z,996.6
2022-09-17T12:37:08.658Z,996.6
2022-09-17T12:38:11.732Z,996.6
2022-09-17T12:39:15.469Z,996.7
2022-09-17T12:40:18.068Z,996.6
2022-09-17T12:41:20.825Z,996.6
2022-09-17T12:42:23.799Z,996.6
2022-09-17T12:43:27.146Z,996.6
2022-09-17T12:44:31.034Z,996.6
2022-09-17T12:45:35.083Z,996.6
2022-09-17T12:46:38.635Z,996.5
2022-09-17T12:47:41.695Z,996.6
2022-09-17T12:48:45.075Z,996.5
2022-09-17T12:49:47.947Z,996.5
2022-09-17T12:50:51.060Z,996.6
2022-09-17T12:51:54.109Z,996.6
2022-09-17T12:52:57.076Z,996.6
2022-09-17T12:54:00.249Z,996.6
2022-09-17T12:55:03.626Z,996.6
2022-09-17T12:56:06.495Z,996.6
2022-09-17T12:57:09.018Z,996.6
2022-09-17T12:58:12.469Z,996.6
2022-09-17T12:59:15.068Z,996.6
2022-09-17T13:00:18.697Z,996.5
2022-09-17T13:01:22.527Z,996.5
2022-09-17T13:02:25.078Z,996.6
2022-09-17T13:03:28.153Z,996.6
2022-09-17T13:05:01.236Z,996.6
2022-09-17T13:06:05.594Z,996.5
2022-09-17T13:07:08.382Z,996.5
2022-09-17T13:08:11.813Z,996.5
2022-09-17T13:09:15.073Z,996.5
2022-09-17T13:10:17.862Z,996.5
2022-09-17T13:11:20.723Z,996.6
2022-09-17T13:12:23.231Z,996.6
2022-09-17T13:13:26.793Z,996.6
2022-09-17T13:14:29.515Z,996.6
2022-09-17T13:15:33.787Z,996.6
2022-09-17T13:16:38.015Z,996.6
2022-09-17T13:17:41.325Z,996.6
2022-09-17T13:19:15.391Z,996.6
2022-09-17T13:20:21.790Z,996.6
2022-09-17T13:21:23.744Z,996.6
2022-09-17T13:22:27.468Z,996.6
2022-09-17T13:23:30.852Z,996.6
2022-09-17T13:24:33.159Z,996.7
2022-09-17T13:25:35.950Z,996.7
2022-09-17T13:26:39.112Z,996.7
2022-09-17T13:27:41.901Z,996.7
2022-09-17T13:28:48.078Z,996.7
2022-09-17T13:29:51.255Z,996.6
2022-09-17T13:30:54.866Z,996.7
2022-09-17T13:31:59.213Z,996.7
2022-09-17T13:33:01.738Z,996.7
2022-09-17T13:34:04.054Z,996.7
2022-09-17T13:35:07.229Z,996.6
2022-09-17T13:36:10.604Z,996.6
2022-09-17T13:37:13.751Z,996.7
2022-09-17T13:38:23.021Z,996.7
2022-09-17T13:39:27.143Z,996.6
2022-09-17T13:40:29.831Z,996.6
2022-09-17T13:41:33.303Z,996.7
2022-09-17T13:42:36.167Z,996.6
2022-09-17T13:43:38.598Z,996.7
2022-09-17T13:44:41.621Z,996.7
2022-09-17T13:45:44.142Z,996.7
2022-09-17T13:46:48.526Z,996.7
2022-09-17T13:47:52.977Z,996.7
2022-09-17T13:48:56.337Z,996.7
2022-09-17T13:49:59.504Z,996.7
2022-09-17T13:51:02.002Z,996.8
2022-09-17T13:52:12.225Z,996.7
2022-09-17T13:53:14.773Z,996.7
2022-09-17T13:54:17.708Z,996.7